createdAt,value
2019-04-26T00:00:53.250Z,6.03
2019-04-26T00:03:24.288Z,5.47
2019-04-26T00:05:53.616Z,6.22
2019-04-26T00:08:22.646Z,5.37
2019-04-26T00:11:09.619Z,7.45
2019-04-26T00:13:53.345Z,6.03
2019-04-26T00:16:24.097Z,6.55
2019-04-26T00:18:53.057Z,6.30
2019-04-26T00:21:22.671Z,5.83
2019-04-26T00:23:52.391Z,6.28
2019-04-26T00:26:22.059Z,6.57
2019-04-26T00:28:51.102Z,6.45
2019-04-26T00:31:20.048Z,9.60
2019-04-26T00:33:49.044Z,7.37
2019-04-26T00:36:18.699Z,7.17
2019-04-26T00:38:48.107Z,7.08
2019-04-26T00:41:18.477Z,8.67
2019-04-26T00:43:49.294Z,8.15
2019-04-26T00:46:20.887Z,10.25
2019-04-26T00:48:52.202Z,8.45
2019-04-26T00:51:22.100Z,7.47
2019-04-26T00:53:52.504Z,7.87
2019-04-26T00:56:22.600Z,7.47
2019-04-26T00:58:52.488Z,7.35
2019-04-26T01:01:22.976Z,8.40
2019-04-26T01:03:51.997Z,8.10
2019-04-26T01:06:22.984Z,8.83
2019-04-26T01:08:52.331Z,7.35
2019-04-26T01:11:21.860Z,8.65
2019-04-26T01:13:50.864Z,10.90
2019-04-26T01:16:20.215Z,7.50
2019-04-26T01:18:52.504Z,8.20
2019-04-26T01:21:24.752Z,7.30
2019-04-26T01:23:56.904Z,8.23
2019-04-26T01:26:31.744Z,7.50
2019-04-26T01:29:03.967Z,7.05
2019-04-26T01:31:36.008Z,9.65
2019-04-26T01:34:05.309Z,7.87
2019-04-26T01:36:36.952Z,9.03
2019-04-26T01:39:10.289Z,8.15
2019-04-26T01:41:53.185Z,9.38
2019-04-26T01:44:38.620Z,8.88
2019-04-26T01:47:07.595Z,8.75
2019-04-26T01:49:36.724Z,8.00
2019-04-26T01:52:09.142Z,10.10
2019-04-26T01:54:43.457Z,8.60
2019-04-26T01:57:14.394Z,8.20
2019-04-26T01:59:47.787Z,7.40
2019-04-26T02:02:27.777Z,10.80
2019-04-26T02:05:05.861Z,9.23
2019-04-26T02:07:38.543Z,10.05
2019-04-26T02:10:10.077Z,12.53
2019-04-26T02:12:42.069Z,8.65
2019-04-26T02:15:11.710Z,8.85
2019-04-26T02:17:41.920Z,8.50
2019-04-26T02:20:12.442Z,8.93
2019-04-26T02:22:59.662Z,9.80
2019-04-26T02:25:30.083Z,7.12
2019-04-26T02:27:59.679Z,9.05
2019-04-26T02:30:30.513Z,10.43
2019-04-26T02:32:59.548Z,10.80
2019-04-26T02:35:30.238Z,15.28
2019-04-26T02:37:59.357Z,7.78
2019-04-26T02:40:30.091Z,8.13
2019-04-26T02:42:59.356Z,8.25
2019-04-26T02:45:41.878Z,8.85
2019-04-26T02:48:21.945Z,12.67
2019-04-26T02:51:01.512Z,9.18
2019-04-26T02:53:42.192Z,8.98
2019-04-26T02:56:34.121Z,10.32
2019-04-26T02:59:11.779Z,9.28
2019-04-26T03:01:41.811Z,10.10
2019-04-26T03:04:11.084Z,11.63
2019-04-26T03:06:42.852Z,10.20
2019-04-26T03:09:14.751Z,9.65
2019-04-26T03:11:55.937Z,8.88
2019-04-26T03:14:27.686Z,9.20
2019-04-26T03:17:06.953Z,10.08
2019-04-26T03:19:58.668Z,8.68
2019-04-26T03:22:33.190Z,8.43
2019-04-26T03:27:41.879Z,11.63
2019-04-26T03:30:22.751Z,8.45
2019-04-26T03:32:56.311Z,8.18
2019-04-26T03:35:55.352Z,9.10
2019-04-26T03:38:23.236Z,8.73
2019-04-26T03:41:14.806Z,10.30
2019-04-26T03:43:46.909Z,9.83
2019-04-26T03:46:35.689Z,9.70
2019-04-26T03:49:25.631Z,9.65
2019-04-26T03:52:21.866Z,10.80
2019-04-26T03:54:53.981Z,11.45
2019-04-26T03:57:59.587Z,9.25
2019-04-26T04:00:47.316Z,9.70
2019-04-26T04:03:43.475Z,11.60
2019-04-26T04:06:16.386Z,12.15
2019-04-26T04:08:48.536Z,11.33
2019-04-26T04:11:29.223Z,10.45
2019-04-26T04:14:07.028Z,9.45
2019-04-26T04:16:58.511Z,10.08
2019-04-26T04:19:56.281Z,10.35
2019-04-26T04:22:28.383Z,10.55
2019-04-26T04:25:06.445Z,9.85
2019-04-26T04:27:41.846Z,10.82
2019-04-26T04:30:17.742Z,11.00
2019-04-26T04:32:55.733Z,9.93
2019-04-26T04:35:28.042Z,10.20
2019-04-26T04:38:15.325Z,11.45
2019-04-26T04:41:08.708Z,12.05
2019-04-26T04:43:44.585Z,9.73
2019-04-26T04:46:49.654Z,12.70
2019-04-26T04:49:28.607Z,11.18
2019-04-26T04:52:33.518Z,11.73
2019-04-26T04:55:14.401Z,13.80
2019-04-26T04:57:58.393Z,13.40
2019-04-26T05:03:33.077Z,10.85
2019-04-26T05:06:12.563Z,9.45
2019-04-26T05:09:11.781Z,11.65
2019-04-26T05:11:53.855Z,10.72
2019-04-26T05:14:31.762Z,10.90
2019-04-26T05:17:19.174Z,10.60
2019-04-26T05:20:24.378Z,10.35
2019-04-26T05:23:12.283Z,11.00
2019-04-26T05:26:30.965Z,11.70
2019-04-26T05:29:24.170Z,13.22
2019-04-26T05:32:11.156Z,11.40
2019-04-26T05:34:50.738Z,9.35
2019-04-26T05:37:42.880Z,11.33
2019-04-26T05:40:17.659Z,12.40
2019-04-26T05:43:18.556Z,11.18
2019-04-26T05:46:24.212Z,10.25
2019-04-26T05:49:21.689Z,11.03
2019-04-26T05:52:12.184Z,12.28
2019-04-26T05:55:00.261Z,10.08
2019-04-26T05:58:02.958Z,10.88
2019-04-26T06:00:56.091Z,10.63
2019-04-26T06:03:38.560Z,12.63
2019-04-26T06:06:15.196Z,13.40
2019-04-26T06:09:22.019Z,11.75
2019-04-26T06:12:01.566Z,14.85
2019-04-26T06:14:43.970Z,18.60
2019-04-26T06:17:45.030Z,13.18
2019-04-26T06:20:34.011Z,12.98
2019-04-26T06:23:33.324Z,13.72
2019-04-26T06:26:28.143Z,12.88
2019-04-26T06:29:09.030Z,13.05
2019-04-26T06:31:41.124Z,13.83
2019-04-26T06:34:16.089Z,11.93
2019-04-26T06:36:50.180Z,11.30
2019-04-26T06:39:23.870Z,12.78
2019-04-26T06:42:06.475Z,11.18
2019-04-26T06:44:52.239Z,9.38
2019-04-26T06:47:37.440Z,11.12
2019-04-26T06:50:29.413Z,15.65
2019-04-26T06:53:07.328Z,11.05
2019-04-26T06:55:41.078Z,12.23
2019-04-26T06:58:23.920Z,11.35
2019-04-26T07:01:29.188Z,12.20
2019-04-26T07:04:21.302Z,11.10
2019-04-26T07:07:11.616Z,10.55
2019-04-26T07:10:02.542Z,8.68
2019-04-26T07:12:54.394Z,10.30
2019-04-26T07:15:29.376Z,9.48
2019-04-26T07:18:16.271Z,9.35
2019-04-26T07:21:00.463Z,7.35
2019-04-26T07:24:03.845Z,11.03
2019-04-26T07:26:52.787Z,10.30
2019-04-26T07:29:41.455Z,10.75
2019-04-26T07:32:42.599Z,9.30
2019-04-26T07:35:47.994Z,10.08
2019-04-26T07:38:55.907Z,9.93
2019-04-26T07:42:03.309Z,12.35
2019-04-26T07:45:12.396Z,10.60
2019-04-26T07:48:14.642Z,12.18
2019-04-26T07:51:20.567Z,8.90
2019-04-26T07:54:09.172Z,10.10
2019-04-26T07:56:59.014Z,8.65
2019-04-26T07:59:37.031Z,11.03
2019-04-26T08:02:22.367Z,10.05
2019-04-26T08:05:20.505Z,13.53
2019-04-26T08:07:55.211Z,7.67
2019-04-26T08:10:27.567Z,10.60
2019-04-26T08:13:04.427Z,11.83
2019-04-26T08:15:40.283Z,9.25
2019-04-26T08:18:22.060Z,8.70
2019-04-26T08:21:02.565Z,7.90
2019-04-26T08:23:41.686Z,6.55
2019-04-26T08:26:09.136Z,9.13
2019-04-26T08:28:40.854Z,10.28
2019-04-26T08:31:15.540Z,8.78
2019-04-26T08:33:48.981Z,8.23
2019-04-26T08:36:23.266Z,7.70
2019-04-26T08:38:53.956Z,7.55
2019-04-26T08:41:24.796Z,14.83
2019-04-26T08:43:59.794Z,10.98
2019-04-26T08:46:44.742Z,11.30
2019-04-26T08:49:17.582Z,8.30
2019-04-26T08:51:48.138Z,11.00
2019-04-26T08:54:21.568Z,9.18
2019-04-26T08:56:53.689Z,7.45
2019-04-26T08:59:34.600Z,7.75
2019-04-26T09:02:08.325Z,9.98
2019-04-26T09:04:56.875Z,6.72
2019-04-26T09:07:36.281Z,9.05
2019-04-26T09:10:11.296Z,12.18
2019-04-26T09:12:42.511Z,7.62
2019-04-26T09:15:14.897Z,7.97
2019-04-26T09:17:43.972Z,8.73
2019-04-26T09:20:13.471Z,6.33
2019-04-26T09:22:44.148Z,9.28
2019-04-26T09:25:23.888Z,8.05
2019-04-26T09:27:54.627Z,8.40
2019-04-26T09:30:38.559Z,7.62
2019-04-26T09:33:09.951Z,9.15
2019-04-26T09:35:39.567Z,7.17
2019-04-26T09:38:08.533Z,6.65
2019-04-26T09:40:37.760Z,10.43
2019-04-26T09:43:15.251Z,6.70
2019-04-26T09:45:49.152Z,9.53
2019-04-26T09:48:20.214Z,6.85
2019-04-26T09:50:50.878Z,6.53
2019-04-26T09:53:20.134Z,7.62
2019-04-26T09:55:49.158Z,4.65
2019-04-26T09:58:18.397Z,7.83
2019-04-26T10:00:48.470Z,6.10
2019-04-26T10:03:18.223Z,6.87
2019-04-26T10:05:47.333Z,7.10
2019-04-26T10:08:16.456Z,12.73
2019-04-26T10:10:45.521Z,6.75
2019-04-26T10:13:28.272Z,11.20
2019-04-26T10:16:02.595Z,8.23
2019-04-26T10:18:29.782Z,13.23
2019-04-26T10:20:58.739Z,5.25
2019-04-26T10:23:27.732Z,7.30
2019-04-26T10:25:56.683Z,7.47
2019-04-26T10:28:25.830Z,12.55
2019-04-26T10:30:54.792Z,8.10
2019-04-26T10:33:24.020Z,14.93
2019-04-26T10:35:56.796Z,8.65
2019-04-26T10:38:25.387Z,10.25
2019-04-26T10:40:54.604Z,10.35
2019-04-26T10:43:23.558Z,7.20
2019-04-26T10:45:54.035Z,6.35
2019-04-26T10:48:23.386Z,5.97
2019-04-26T10:50:52.641Z,7.42
2019-04-26T10:53:30.257Z,5.00
2019-04-26T10:56:14.531Z,5.97
2019-04-26T10:58:45.259Z,4.72
2019-04-26T11:01:16.085Z,5.12
2019-04-26T11:03:45.395Z,10.78
2019-04-26T11:06:14.516Z,5.63
2019-04-26T11:08:43.621Z,4.37
2019-04-26T11:11:12.616Z,6.17
2019-04-26T11:13:41.572Z,3.60
2019-04-26T11:16:11.016Z,6.72
2019-04-26T11:18:40.077Z,4.50
2019-04-26T11:21:09.096Z,3.80
2019-04-26T11:23:41.175Z,6.72
2019-04-26T11:26:08.878Z,4.83
2019-04-26T11:28:37.834Z,5.85
2019-04-26T11:31:06.844Z,6.75
2019-04-26T11:33:44.727Z,7.58
2019-04-26T11:36:07.378Z,6.60
2019-04-26T11:38:37.727Z,4.58
2019-04-26T11:41:07.096Z,8.03
2019-04-26T11:43:36.283Z,6.67
2019-04-26T11:46:06.146Z,5.28
2019-04-26T11:48:35.122Z,5.17
2019-04-26T11:51:04.184Z,5.17
2019-04-26T11:53:33.466Z,4.17
2019-04-26T11:56:04.488Z,5.10
2019-04-26T11:58:33.482Z,5.90
2019-04-26T12:01:04.156Z,4.90
2019-04-26T12:03:33.153Z,4.00
2019-04-26T12:06:09.652Z,4.30
2019-04-26T12:08:55.313Z,5.47
2019-04-26T12:11:31.573Z,7.43
2019-04-26T12:13:59.284Z,5.50
2019-04-26T12:16:26.004Z,5.72
2019-04-26T12:18:55.039Z,7.20
2019-04-26T12:21:24.169Z,4.90
2019-04-26T12:23:55.456Z,7.65
2019-04-26T12:26:23.947Z,6.87
2019-04-26T12:28:52.926Z,5.80
2019-04-26T12:31:22.310Z,3.30
2019-04-26T12:33:51.711Z,6.05
2019-04-26T12:36:20.680Z,5.87
2019-04-26T12:38:49.791Z,6.17
2019-04-26T12:41:25.232Z,6.12
2019-04-26T12:43:49.838Z,6.35
2019-04-26T12:46:31.852Z,3.53
2019-04-26T12:49:00.428Z,4.97
2019-04-26T12:51:29.452Z,3.12
2019-04-26T12:53:58.819Z,5.17
2019-04-26T12:56:31.295Z,4.72
2019-04-26T12:58:58.449Z,5.67
2019-04-26T13:01:27.483Z,4.08
2019-04-26T13:04:06.632Z,5.67
2019-04-26T13:06:50.515Z,5.78
2019-04-26T13:09:21.815Z,4.17
2019-04-26T13:11:59.177Z,3.15
2019-04-26T13:14:45.895Z,4.45
2019-04-26T13:17:16.506Z,5.97
2019-04-26T13:19:45.506Z,4.67
2019-04-26T13:22:14.472Z,5.22
2019-04-26T13:24:43.419Z,5.78
2019-04-26T13:27:12.449Z,5.00
2019-04-26T13:29:41.420Z,7.50
2019-04-26T13:32:10.671Z,7.40
2019-04-26T13:34:39.643Z,7.00
2019-04-26T13:37:08.586Z,7.83
2019-04-26T13:39:37.957Z,3.95
2019-04-26T13:42:09.602Z,3.35
2019-04-26T13:44:56.441Z,4.80
2019-04-26T13:47:33.218Z,5.92
2019-04-26T13:50:09.438Z,6.45
2019-04-26T13:52:38.464Z,8.13
2019-04-26T13:55:07.602Z,7.17
2019-04-26T13:57:40.317Z,7.22
2019-04-26T14:00:11.697Z,5.37
2019-04-26T14:02:40.785Z,7.33
2019-04-26T14:05:11.062Z,3.65
2019-04-26T14:07:40.575Z,3.87
2019-04-26T14:10:09.973Z,3.05
2019-04-26T14:12:39.181Z,6.33
2019-04-26T14:15:10.093Z,5.33
2019-04-26T14:17:39.310Z,4.20
2019-04-26T14:20:08.743Z,2.95
2019-04-26T14:22:40.974Z,6.15
2019-04-26T14:25:11.862Z,3.98
2019-04-26T14:27:45.410Z,5.30
2019-04-26T14:30:15.885Z,4.80
2019-04-26T14:32:44.913Z,4.12
2019-04-26T14:35:15.611Z,3.98
2019-04-26T14:37:45.428Z,3.60
2019-04-26T14:40:17.728Z,4.92
2019-04-26T14:42:48.463Z,3.75
2019-04-26T14:45:23.817Z,4.37
2019-04-26T14:47:47.960Z,3.67
2019-04-26T14:50:17.107Z,4.22
2019-04-26T14:52:46.132Z,7.10
2019-04-26T14:55:16.457Z,7.75
2019-04-26T14:57:46.813Z,3.85
2019-04-26T15:00:20.745Z,6.65
2019-04-26T15:02:57.784Z,6.33
2019-04-26T15:05:33.225Z,7.42
2019-04-26T15:08:03.872Z,4.60
2019-04-26T15:10:43.856Z,7.08
2019-04-26T15:13:17.142Z,5.85
2019-04-26T15:15:37.296Z,4.00
2019-04-26T15:18:06.330Z,5.15
2019-04-26T15:20:35.418Z,5.37
2019-04-26T15:23:04.471Z,4.70
2019-04-26T15:25:33.629Z,4.55
2019-04-26T15:28:06.782Z,2.77
2019-04-26T15:30:43.053Z,3.42
2019-04-26T15:33:08.638Z,4.03
2019-04-26T15:35:52.139Z,6.10
2019-04-26T15:38:21.832Z,4.12
2019-04-26T15:40:53.414Z,4.15
2019-04-26T15:43:36.195Z,4.05
2019-04-26T15:46:13.344Z,3.67
2019-04-26T15:48:50.404Z,5.50
2019-04-26T15:51:20.147Z,4.03
2019-04-26T15:53:49.775Z,4.25
2019-04-26T15:56:19.183Z,2.80
2019-04-26T15:58:49.187Z,2.45
2019-04-26T16:01:18.371Z,2.45
2019-04-26T16:03:47.525Z,3.67
2019-04-26T16:06:16.533Z,5.57
2019-04-26T16:08:45.474Z,3.75
2019-04-26T16:11:14.577Z,4.97
2019-04-26T16:13:45.175Z,2.10
2019-04-26T16:16:16.472Z,5.95
2019-04-26T16:18:49.863Z,5.42
2019-04-26T16:21:17.984Z,4.47
2019-04-26T16:23:50.947Z,6.67
2019-04-26T16:26:17.070Z,5.13
2019-04-26T16:29:06.157Z,4.15
2019-04-26T16:31:36.752Z,3.95
2019-04-26T16:34:11.599Z,4.35
2019-04-26T16:36:45.031Z,5.45
2019-04-26T16:39:13.849Z,2.58
2019-04-26T16:41:42.985Z,3.20
2019-04-26T16:44:13.082Z,3.30
2019-04-26T16:46:43.892Z,2.60
2019-04-26T16:49:14.113Z,4.08
2019-04-26T16:51:43.702Z,4.20
2019-04-26T16:54:20.740Z,6.35
2019-04-26T16:56:44.052Z,2.47
2019-04-26T16:59:14.228Z,3.90
2019-04-26T17:01:47.267Z,2.33
2019-04-26T17:04:19.924Z,2.67
2019-04-26T17:06:46.392Z,3.77
2019-04-26T17:09:15.875Z,2.35
2019-04-26T17:11:44.840Z,4.55
2019-04-26T17:14:13.807Z,5.35
2019-04-26T17:16:44.466Z,3.40
2019-04-26T17:19:13.847Z,5.70
2019-04-26T17:21:44.654Z,3.33
2019-04-26T17:24:27.772Z,1.90
2019-04-26T17:27:09.859Z,3.10
2019-04-26T17:29:38.483Z,3.72
2019-04-26T17:32:09.018Z,2.80
2019-04-26T17:34:40.546Z,2.77
2019-04-26T17:37:12.781Z,4.30
2019-04-26T17:39:40.886Z,3.98
2019-04-26T17:42:10.558Z,3.37
2019-04-26T17:44:41.262Z,5.65
2019-04-26T17:47:10.698Z,2.22
2019-04-26T17:49:42.296Z,4.58
2019-04-26T17:52:11.632Z,3.47
2019-04-26T17:54:47.039Z,2.77
2019-04-26T17:57:14.309Z,3.15
2019-04-26T17:59:47.663Z,3.12
2019-04-26T18:02:25.874Z,4.20
2019-04-26T18:04:43.791Z,5.33
2019-04-26T18:07:36.257Z,4.53
2019-04-26T18:09:46.612Z,3.98
2019-04-26T18:12:14.091Z,4.62
2019-04-26T18:14:43.394Z,4.50
2019-04-26T18:17:25.993Z,3.83
2019-04-26T18:20:05.175Z,2.37
2019-04-26T18:22:36.174Z,3.50
2019-04-26T18:25:11.117Z,2.67
2019-04-26T18:27:38.711Z,1.65
2019-04-26T18:30:11.675Z,6.10
2019-04-26T18:32:42.932Z,3.40
2019-04-26T18:35:15.198Z,3.42
2019-04-26T18:37:42.599Z,2.27
2019-04-26T18:40:11.929Z,3.47
2019-04-26T18:42:41.846Z,3.33
2019-04-26T18:45:11.745Z,2.60
2019-04-26T18:47:45.370Z,3.40
2019-04-26T18:52:50.636Z,2.72
2019-04-26T18:55:28.546Z,2.42
2019-04-26T18:57:55.173Z,3.93
2019-04-26T19:00:28.981Z,1.47
2019-04-26T19:02:59.998Z,4.45
2019-04-26T19:05:30.155Z,2.77
2019-04-26T19:07:59.653Z,3.42
2019-04-26T19:10:29.279Z,3.15
2019-04-26T19:13:01.467Z,2.12
2019-04-26T19:15:42.028Z,6.15
2019-04-26T19:18:15.179Z,2.62
2019-04-26T19:20:48.510Z,3.12
2019-04-26T19:23:17.542Z,3.12
2019-04-26T19:25:46.498Z,2.05
2019-04-26T19:28:15.901Z,1.55
2019-04-26T19:30:49.558Z,3.72
2019-04-26T19:33:16.885Z,2.67
2019-04-26T19:35:47.588Z,1.92
2019-04-26T19:38:16.690Z,1.92
2019-04-26T19:40:47.800Z,6.05
2019-04-26T19:43:28.251Z,2.92
2019-04-26T19:45:48.850Z,2.35
2019-04-26T19:48:26.104Z,1.42
2019-04-26T19:50:56.798Z,1.30
2019-04-26T19:53:30.152Z,2.45
2019-04-26T19:56:06.863Z,2.17
2019-04-26T19:58:45.877Z,2.08
2019-04-26T20:01:16.469Z,2.12
2019-04-26T20:03:47.387Z,3.12
2019-04-26T20:06:18.791Z,2.40
2019-04-26T20:08:49.378Z,4.50
2019-04-26T20:11:18.699Z,2.30
2019-04-26T20:13:51.874Z,3.08
2019-04-26T20:16:18.139Z,9.95
2019-04-26T20:18:47.089Z,6.53
2019-04-26T20:21:16.040Z,2.57
2019-04-26T20:23:47.476Z,4.08
2019-04-26T20:26:15.663Z,6.63
2019-04-26T20:28:44.661Z,1.65
2019-04-26T20:31:15.338Z,15.15
2019-04-26T20:33:44.443Z,13.75
2019-04-26T20:36:13.422Z,5.93
2019-04-26T20:38:47.069Z,7.15
2019-04-26T20:41:14.819Z,6.40
2019-04-26T20:43:47.020Z,4.78
2019-04-26T20:46:15.630Z,2.87
2019-04-26T20:48:45.151Z,2.92
2019-04-26T20:51:14.117Z,4.87
2019-04-26T20:53:43.830Z,3.20
2019-04-26T20:56:18.175Z,2.70
2019-04-26T20:58:47.005Z,3.77
2019-04-26T21:01:15.406Z,2.50
2019-04-26T21:03:46.004Z,5.05
2019-04-26T21:06:15.221Z,2.15
2019-04-26T21:08:44.325Z,2.98
2019-04-26T21:11:13.808Z,4.40
2019-04-26T21:13:43.186Z,4.17
2019-04-26T21:16:15.286Z,3.60
2019-04-26T21:18:44.364Z,3.90
2019-04-26T21:21:16.019Z,3.37
2019-04-26T21:23:46.200Z,6.60
2019-04-26T21:26:16.901Z,3.70
2019-04-26T21:28:47.563Z,4.53
2019-04-26T21:31:18.169Z,4.95
2019-04-26T21:33:58.073Z,2.90
2019-04-26T21:36:36.218Z,5.17
2019-04-26T21:39:07.349Z,11.53
2019-04-26T21:41:40.428Z,15.03
2019-04-26T21:44:12.350Z,7.87
2019-04-26T21:46:40.055Z,7.50
2019-04-26T21:49:09.003Z,5.25
2019-04-26T21:51:38.354Z,3.72
2019-04-26T21:54:07.317Z,4.42
2019-04-26T21:56:36.274Z,6.12
2019-04-26T21:59:05.255Z,5.60
2019-04-26T22:01:34.361Z,5.03
2019-04-26T22:04:03.316Z,2.90
2019-04-26T22:06:33.416Z,3.37
2019-04-26T22:09:05.165Z,2.92
2019-04-26T22:11:34.832Z,5.40
2019-04-26T22:14:08.277Z,4.03
2019-04-26T22:16:41.907Z,3.22
2019-04-26T22:19:23.757Z,5.40
2019-04-26T22:21:59.345Z,4.92
2019-04-26T22:24:29.389Z,3.35
2019-04-26T22:26:58.366Z,4.08
2019-04-26T22:29:27.592Z,3.30
2019-04-26T22:31:56.661Z,4.78
2019-04-26T22:34:25.686Z,5.92
2019-04-26T22:36:54.635Z,3.00
2019-04-26T22:39:24.542Z,3.77
2019-04-26T22:41:53.801Z,4.62
2019-04-26T22:44:31.377Z,6.60
2019-04-26T22:47:08.333Z,4.25
2019-04-26T22:49:41.643Z,4.12
2019-04-26T22:52:11.120Z,5.03
2019-04-26T22:54:44.664Z,3.50
2019-04-26T22:57:13.119Z,5.65
2019-04-26T22:59:43.276Z,6.10
2019-04-26T23:02:13.684Z,6.55
2019-04-26T23:04:42.935Z,3.77
2019-04-26T23:07:13.551Z,5.10
2019-04-26T23:09:45.711Z,4.25
2019-04-26T23:12:16.411Z,5.05
2019-04-26T23:15:05.531Z,4.25
2019-04-26T23:17:52.625Z,4.20
2019-04-26T23:20:38.106Z,5.35
2019-04-26T23:23:08.681Z,5.03
2019-04-26T23:25:37.874Z,5.53
2019-04-26T23:28:06.834Z,5.75
2019-04-26T23:30:35.789Z,7.08
2019-04-26T23:33:04.820Z,6.75
2019-04-26T23:35:37.576Z,5.67
2019-04-26T23:38:06.102Z,7.33
2019-04-26T23:40:35.395Z,6.20
2019-04-26T23:43:04.413Z,4.22
2019-04-26T23:45:33.442Z,5.97
2019-04-26T23:48:03.547Z,5.00
2019-04-26T23:50:34.081Z,5.72
2019-04-26T23:53:03.265Z,5.30
2019-04-26T23:55:33.720Z,4.85
2019-04-26T23:58:06.456Z,5.12
